sensor_id;sensor_type;location;lat;lon;timestamp;pressure;altitude;pressure_sealevel;temperature;humidity
36828;BME280;22766;48.042;11.192;2022-10-16T00:00:23;95120.50;;;10.69;100.00
36828;BME280;22766;48.042;11.192;2022-10-16T00:02:50;95117.00;;;10.78;100.00
36828;BME280;22766;48.042;11.192;2022-10-16T00:05:16;95125.31;;;10.90;100.00
36828;BME280;22766;48.042;11.192;2022-10-16T00:07:43;95118.78;;;10.78;100.00
36828;BME280;22766;48.042;11.192;2022-10-16T00:10:09;95120.59;;;10.85;100.00
36828;BME280;22766;48.042;11.192;2022-10-16T00:12:36;95114.00;;;10.91;100.00
36828;BME280;22766;48.042;11.192;2022-10-16T00:15:03;95119.19;;;10.91;100.00
36828;BME280;22766;48.042;11.192;2022-10-16T00:17:30;95119.44;;;10.80;100.00
36828;BME280;22766;48.042;11.192;2022-10-16T00:19:56;95122.75;;;10.72;100.00
36828;BME280;22766;48.042;11.192;2022-10-16T00:22:23;95121.44;;;10.68;100.00
36828;BME280;22766;48.042;11.192;2022-10-16T00:24:51;95119.88;;;10.75;100.00
36828;BME280;22766;48.042;11.192;2022-10-16T00:27:17;95121.66;;;10.75;100.00
36828;BME280;22766;48.042;11.192;2022-10-16T00:29:44;95123.88;;;10.70;100.00
36828;BME280;22766;48.042;11.192;2022-10-16T00:32:10;95123.88;;;10.70;100.00
36828;BME280;22766;48.042;11.192;2022-10-16T00:34:37;95129.53;;;10.73;100.00
36828;BME280;22766;48.042;11.192;2022-10-16T00:37:04;95127.78;;;10.74;100.00
36828;BME280;22766;48.042;11.192;2022-10-16T00:39:30;95127.03;;;10.81;100.00
36828;BME280;22766;48.042;11.192;2022-10-16T00:41:57;95128.00;;;10.80;100.00
36828;BME280;22766;48.042;11.192;2022-10-16T00:47:34;95130.34;;;10.91;100.00
36828;BME280;22766;48.042;11.192;2022-10-16T00:50:31;95135.72;;;10.98;100.00
36828;BME280;22766;48.042;11.192;2022-10-16T00:52:59;95135.25;;;11.02;100.00
36828;BME280;22766;48.042;11.192;2022-10-16T00:55:28;95126.69;;;11.02;100.00
36828;BME280;22766;48.042;11.192;2022-10-16T00:57:57;95137.69;;;11.04;100.00
36828;BME280;22766;48.042;11.192;2022-10-16T01:00:26;95136.34;;;11.00;100.00
36828;BME280;22766;48.042;11.192;2022-10-16T01:02:58;95145.06;;;10.99;100.00
36828;BME280;22766;48.042;11.192;2022-10-16T01:05:31;95140.22;;;10.96;100.00
36828;BME280;22766;48.042;11.192;2022-10-16T01:08:12;95135.34;;;10.93;100.00
36828;BME280;22766;48.042;11.192;2022-10-16T01:10:57;95133.88;;;10.90;100.00
36828;BME280;22766;48.042;11.192;2022-10-16T01:13:35;95136.75;;;10.87;100.00
36828;BME280;22766;48.042;11.192;2022-10-16T01:16:08;95135.94;;;10.87;100.00
36828;BME280;22766;48.042;11.192;2022-10-16T01:18:57;95138.31;;;10.80;100.00
36828;BME280;22766;48.042;11.192;2022-10-16T01:21:32;95145.69;;;10.75;100.00
36828;BME280;22766;48.042;11.192;2022-10-16T01:32:28;95144.84;;;10.67;100.00
36828;BME280;22766;48.042;11.192;2022-10-16T01:35:05;95141.44;;;10.66;100.00
36828;BME280;22766;48.042;11.192;2022-10-16T01:40:19;95138.66;;;10.60;100.00
36828;BME280;22766;48.042;11.192;2022-10-16T01:42:55;95133.63;;;10.58;100.00
36828;BME280;22766;48.042;11.192;2022-10-16T01:45:29;95132.16;;;10.38;100.00
36828;BME280;22766;48.042;11.192;2022-10-16T01:47:58;95133.56;;;10.32;100.00
36828;BME280;22766;48.042;11.192;2022-10-16T01:50:27;95136.28;;;10.31;100.00
36828;BME280;22766;48.042;11.192;2022-10-16T01:52:55;95138.03;;;10.13;100.00
36828;BME280;22766;48.042;11.192;2022-10-16T01:55:30;95131.81;;;10.06;100.00
36828;BME280;22766;48.042;11.192;2022-10-16T01:58:01;95124.63;;;10.09;100.00
36828;BME280;22766;48.042;11.192;2022-10-16T02:00:30;95133.38;;;10.16;100.00
36828;BME280;22766;48.042;11.192;2022-10-16T02:02:58;95137.28;;;10.03;100.00
36828;BME280;22766;48.042;11.192;2022-10-16T02:05:43;95138.28;;;9.92;100.00
36828;BME280;22766;48.042;11.192;2022-10-16T02:08:12;95136.78;;;9.90;100.00
36828;BME280;22766;48.042;11.192;2022-10-16T02:10:39;95137.38;;;9.84;100.00
36828;BME280;22766;48.042;11.192;2022-10-16T02:15:35;95142.94;;;10.06;100.00
36828;BME280;22766;48.042;11.192;2022-10-16T02:18:04;95132.47;;;10.08;100.00
36828;BME280;22766;48.042;11.192;2022-10-16T02:20:36;95125.66;;;10.16;100.00
36828;BME280;22766;48.042;11.192;2022-10-16T02:23:07;95130.16;;;10.14;100.00
36828;BME280;22766;48.042;11.192;2022-10-16T02:25:40;95132.59;;;10.16;100.00
36828;BME280;22766;48.042;11.192;2022-10-16T02:30:43;95133.38;;;10.16;100.00
36828;BME280;22766;48.042;11.192;2022-10-16T02:33:12;95134.72;;;10.20;100.00
36828;BME280;22766;48.042;11.192;2022-10-16T02:35:40;95138.94;;;10.21;100.00
36828;BME280;22766;48.042;11.192;2022-10-16T02:38:08;95143.28;;;10.21;100.00
36828;BME280;22766;48.042;11.192;2022-10-16T02:40:40;95143.34;;;10.11;100.00
36828;BME280;22766;48.042;11.192;2022-10-16T02:43:08;95144.34;;;10.01;100.00
36828;BME280;22766;48.042;11.192;2022-10-16T02:45:35;95138.31;;;9.83;100.00
36828;BME280;22766;48.042;11.192;2022-10-16T02:48:02;95139.56;;;9.79;100.00
36828;BME280;22766;48.042;11.192;2022-10-16T02:50:28;95133.75;;;9.77;100.00
36828;BME280;22766;48.042;11.192;2022-10-16T02:52:55;95137.81;;;9.79;100.00
36828;BME280;22766;48.042;11.192;2022-10-16T02:55:22;95127.28;;;9.90;100.00
36828;BME280;22766;48.042;11.192;2022-10-16T02:57:48;95127.97;;;9.92;100.00
36828;BME280;22766;48.042;11.192;2022-10-16T03:00:16;95135.38;;;9.95;100.00
36828;BME280;22766;48.042;11.192;2022-10-16T03:02:43;95140.19;;;9.90;100.00
36828;BME280;22766;48.042;11.192;2022-10-16T03:05:10;95135.22;;;9.79;100.00
36828;BME280;22766;48.042;11.192;2022-10-16T03:07:37;95135.06;;;9.81;100.00
36828;BME280;22766;48.042;11.192;2022-10-16T03:10:04;95158.06;;;9.74;100.00
36828;BME280;22766;48.042;11.192;2022-10-16T03:12:31;95167.34;;;9.85;100.00
36828;BME280;22766;48.042;11.192;2022-10-16T03:14:58;95161.91;;;9.88;100.00
36828;BME280;22766;48.042;11.192;2022-10-16T03:17:25;95157.97;;;9.93;100.00
36828;BME280;22766;48.042;11.192;2022-10-16T03:19:52;95155.09;;;9.96;100.00
36828;BME280;22766;48.042;11.192;2022-10-16T03:22:19;95161.56;;;10.00;100.00
36828;BME280;22766;48.042;11.192;2022-10-16T03:24:45;95172.13;;;10.07;100.00
36828;BME280;22766;48.042;11.192;2022-10-16T03:27:12;95166.25;;;10.14;100.00
36828;BME280;22766;48.042;11.192;2022-10-16T03:29:38;95168.25;;;10.20;100.00
36828;BME280;22766;48.042;11.192;2022-10-16T03:32:05;95155.75;;;10.25;100.00
36828;BME280;22766;48.042;11.192;2022-10-16T03:34:32;95157.88;;;10.30;100.00
36828;BME280;22766;48.042;11.192;2022-10-16T03:36:58;95149.56;;;10.36;100.00
36828;BME280;22766;48.042;11.192;2022-10-16T03:39:25;95154.28;;;10.41;100.00
36828;BME280;22766;48.042;11.192;2022-10-16T03:41:51;95152.38;;;10.43;100.00
36828;BME280;22766;48.042;11.192;2022-10-16T03:44:18;95145.16;;;10.46;100.00
36828;BME280;22766;48.042;11.192;2022-10-16T03:46:44;95132.91;;;10.48;100.00
36828;BME280;22766;48.042;11.192;2022-10-16T03:49:11;95145.50;;;10.51;100.00
36828;BME280;22766;48.042;11.192;2022-10-16T03:51:38;95146.31;;;10.52;100.00
36828;BME280;22766;48.042;11.192;2022-10-16T03:54:04;95131.84;;;10.59;100.00
36828;BME280;22766;48.042;11.192;2022-10-16T03:56:31;95133.34;;;10.61;100.00
36828;BME280;22766;48.042;11.192;2022-10-16T03:58:58;95130.59;;;10.63;100.00
36828;BME280;22766;48.042;11.192;2022-10-16T04:01:24;95139.59;;;10.76;100.00
36828;BME280;22766;48.042;11.192;2022-10-16T04:03:51;95145.00;;;10.65;100.00
36828;BME280;22766;48.042;11.192;2022-10-16T04:06:17;95150.59;;;10.61;100.00
36828;BME280;22766;48.042;11.192;2022-10-16T04:08:44;95154.41;;;10.57;100.00
36828;BME280;22766;48.042;11.192;2022-10-16T04:11:11;95156.34;;;10.55;100.00
36828;BME280;22766;48.042;11.192;2022-10-16T04:13:37;95156.34;;;10.55;100.00
36828;BME280;22766;48.042;11.192;2022-10-16T04:16:04;95157.22;;;10.63;100.00
36828;BME280;22766;48.042;11.192;2022-10-16T04:18:31;95160.47;;;10.65;100.00
36828;BME280;22766;48.042;11.192;2022-10-16T04:21:03;95171.31;;;10.69;100.00
36828;BME280;22766;48.042;11.192;2022-10-16T04:23:29;95174.56;;;10.71;100.00
36828;BME280;22766;48.042;11.192;2022-10-16T04:25:56;95164.25;;;10.71;100.00
36828;BME280;22766;48.042;11.192;2022-10-16T04:28:23;95163.50;;;10.78;100.00
36828;BME280;22766;48.042;11.192;2022-10-16T04:30:49;95149.91;;;10.76;100.00
36828;BME280;22766;48.042;11.192;2022-10-16T04:33:16;95140.25;;;10.78;100.00
36828;BME280;22766;48.042;11.192;2022-10-16T04:35:43;95138.47;;;10.79;100.00
36828;BME280;22766;48.042;11.192;2022-10-16T04:38:10;95148.94;;;10.77;100.00
36828;BME280;22766;48.042;11.192;2022-10-16T04:40:36;95153.31;;;10.77;100.00
36828;BME280;22766;48.042;11.192;2022-10-16T04:43:04;95161.72;;;10.79;100.00
36828;BME280;22766;48.042;11.192;2022-10-16T04:45:31;95156.41;;;10.80;100.00
36828;BME280;22766;48.042;11.192;2022-10-16T04:47:58;95149.47;;;10.81;100.00
36828;BME280;22766;48.042;11.192;2022-10-16T04:50:25;95145.09;;;10.81;100.00
36828;BME280;22766;48.042;11.192;2022-10-16T04:53:05;95139.94;;;10.81;100.00
36828;BME280;22766;48.042;11.192;2022-10-16T04:55:32;95145.56;;;10.77;100.00
36828;BME280;22766;48.042;11.192;2022-10-16T04:57:58;95143.78;;;10.77;100.00
36828;BME280;22766;48.042;11.192;2022-10-16T05:00:25;95146.91;;;10.81;100.00
36828;BME280;22766;48.042;11.192;2022-10-16T05:02:52;95160.59;;;10.81;100.00
36828;BME280;22766;48.042;11.192;2022-10-16T05:05:19;95149.91;;;10.76;100.00
36828;BME280;22766;48.042;11.192;2022-10-16T05:07:48;95169.91;;;10.74;100.00
36828;BME280;22766;48.042;11.192;2022-10-16T05:10:16;95171.41;;;10.77;100.00
36828;BME280;22766;48.042;11.192;2022-10-16T05:12:42;95177.81;;;10.73;100.00
36828;BME280;22766;48.042;11.192;2022-10-16T05:15:09;95182.75;;;10.66;100.00
36828;BME280;22766;48.042;11.192;2022-10-16T05:17:36;95180.16;;;10.66;100.00
36828;BME280;22766;48.042;11.192;2022-10-16T05:20:10;95176.75;;;10.66;100.00
36828;BME280;22766;48.042;11.192;2022-10-16T05:22:37;95182.38;;;10.61;100.00
36828;BME280;22766;48.042;11.192;2022-10-16T05:25:04;95182.81;;;10.57;100.00
36828;BME280;22766;48.042;11.192;2022-10-16T05:27:31;95168.56;;;10.53;100.00
36828;BME280;22766;48.042;11.192;2022-10-16T05:29:57;95172.34;;;10.58;100.00
36828;BME280;22766;48.042;11.192;2022-10-16T05:32:24;95179.72;;;10.53;100.00
36828;BME280;22766;48.042;11.192;2022-10-16T05:34:51;95183.94;;;10.54;100.00
36828;BME280;22766;48.042;11.192;2022-10-16T05:37:17;95186.53;;;10.54;100.00
36828;BME280;22766;48.042;11.192;2022-10-16T05:39:44;95182.47;;;10.52;100.00
36828;BME280;22766;48.042;11.192;2022-10-16T05:42:11;95185.03;;;10.52;100.00
36828;BME280;22766;48.042;11.192;2022-10-16T05:44:37;95182.97;;;10.55;100.00
36828;BME280;22766;48.042;11.192;2022-10-16T05:47:04;95185.91;;;10.60;100.00
36828;BME280;22766;48.042;11.192;2022-10-16T05:49:30;95183.34;;;10.60;100.00
36828;BME280;22766;48.042;11.192;2022-10-16T05:51:57;95183.88;;;10.64;100.00
36828;BME280;22766;48.042;11.192;2022-10-16T05:54:24;95198.38;;;10.65;100.00
36828;BME280;22766;48.042;11.192;2022-10-16T05:56:50;95205.41;;;10.72;100.00
36828;BME280;22766;48.042;11.192;2022-10-16T05:59:17;95208.66;;;10.74;100.00
36828;BME280;22766;48.042;11.192;2022-10-16T06:01:43;95210.56;;;10.72;100.00
36828;BME280;22766;48.042;11.192;2022-10-16T06:04:10;95211.06;;;10.76;100.00
36828;BME280;22766;48.042;11.192;2022-10-16T06:06:41;95211.91;;;10.76;100.00
36828;BME280;22766;48.042;11.192;2022-10-16T06:09:08;95208.06;;;10.80;100.00
36828;BME280;22766;48.042;11.192;2022-10-16T06:11:36;95203.25;;;10.85;100.00
36828;BME280;22766;48.042;11.192;2022-10-16T06:14:02;95207.47;;;10.86;100.00
36828;BME280;22766;48.042;11.192;2022-10-16T06:16:37;95212.47;;;10.88;100.00
36828;BME280;22766;48.042;11.192;2022-10-16T06:19:04;95206.81;;;10.84;100.00
36828;BME280;22766;48.042;11.192;2022-10-16T06:21:32;95212.84;;;10.93;100.00
36828;BME280;22766;48.042;11.192;2022-10-16T06:23:59;95214.91;;;10.89;100.00
36828;BME280;22766;48.042;11.192;2022-10-16T06:26:28;95219.84;;;11.00;100.00
36828;BME280;22766;48.042;11.192;2022-10-16T06:28:56;95220.56;;;11.10;100.00
36828;BME280;22766;48.042;11.192;2022-10-16T06:31:24;95217.31;;;11.08;100.00
36828;BME280;22766;48.042;11.192;2022-10-16T06:33:57;95224.72;;;11.03;100.00
36828;BME280;22766;48.042;11.192;2022-10-16T06:36:25;95235.06;;;11.03;100.00
36828;BME280;22766;48.042;11.192;2022-10-16T06:38:52;95237.66;;;11.03;100.00
36828;BME280;22766;48.042;11.192;2022-10-16T06:41:20;95238.31;;;11.05;100.00
36828;BME280;22766;48.042;11.192;2022-10-16T06:43:48;95238.66;;;11.10;100.00
36828;BME280;22766;48.042;11.192;2022-10-16T06:46:17;95242.78;;;11.21;100.00
36828;BME280;22766;48.042;11.192;2022-10-16T06:48:45;95242.78;;;11.21;100.00
36828;BME280;22766;48.042;11.192;2022-10-16T06:53:43;95254.94;;;11.28;100.00
36828;BME280;22766;48.042;11.192;2022-10-16T06:56:28;95254.94;;;11.28;100.00
36828;BME280;22766;48.042;11.192;2022-10-16T06:58:57;95264.34;;;11.29;100.00
36828;BME280;22766;48.042;11.192;2022-10-16T07:01:24;95269.78;;;11.26;100.00
36828;BME280;22766;48.042;11.192;2022-10-16T07:03:51;95276.09;;;11.24;100.00
36828;BME280;22766;48.042;11.192;2022-10-16T07:06:20;95276.09;;;11.24;100.00
36828;BME280;22766;48.042;11.192;2022-10-16T07:08:48;95279.47;;;11.24;100.00
36828;BME280;22766;48.042;11.192;2022-10-16T07:11:16;95276.88;;;11.24;100.00
36828;BME280;22766;48.042;11.192;2022-10-16T07:13:44;95276.44;;;11.29;100.00
36828;BME280;22766;48.042;11.192;2022-10-16T07:16:21;95289.28;;;11.39;100.00
36828;BME280;22766;48.042;11.192;2022-10-16T07:18:48;95292.78;;;11.55;100.00
36828;BME280;22766;48.042;11.192;2022-10-16T07:21:18;95295.22;;;11.74;100.00
36828;BME280;22766;48.042;11.192;2022-10-16T07:23:49;95301.00;;;11.94;100.00
36828;BME280;22766;48.042;11.192;2022-10-16T07:26:16;95298.38;;;12.11;100.00
36828;BME280;22766;48.042;11.192;2022-10-16T07:28:43;95303.81;;;12.34;100.00
36828;BME280;22766;48.042;11.192;2022-10-16T07:31:13;95300.47;;;12.50;100.00
36828;BME280;22766;48.042;11.192;2022-10-16T07:33:41;95302.97;;;12.75;100.00
36828;BME280;22766;48.042;11.192;2022-10-16T07:36:15;95310.16;;;12.97;100.00
36828;BME280;22766;48.042;11.192;2022-10-16T07:38:42;95302.91;;;13.09;100.00
36828;BME280;22766;48.042;11.192;2022-10-16T07:41:12;95308.63;;;13.29;100.00
36828;BME280;22766;48.042;11.192;2022-10-16T07:43:39;95305.53;;;13.49;100.00
36828;BME280;22766;48.042;11.192;2022-10-16T07:46:06;95311.69;;;13.56;100.00
36828;BME280;22766;48.042;11.192;2022-10-16T07:48:34;95308.47;;;13.86;100.00
36828;BME280;22766;48.042;11.192;2022-10-16T07:51:03;95309.88;;;14.05;100.00
36828;BME280;22766;48.042;11.192;2022-10-16T07:53:30;95310.66;;;14.22;100.00
36828;BME280;22766;48.042;11.192;2022-10-16T07:55:59;95309.44;;;14.48;100.00
36828;BME280;22766;48.042;11.192;2022-10-16T07:58:27;95305.44;;;14.76;100.00
36828;BME280;22766;48.042;11.192;2022-10-16T08:00:55;95312.19;;;14.85;100.00
36828;BME280;22766;48.042;11.192;2022-10-16T08:03:22;95306.47;;;15.21;100.00
36828;BME280;22766;48.042;11.192;2022-10-16T08:05:49;95308.19;;;15.59;100.00
36828;BME280;22766;48.042;11.192;2022-10-16T08:08:17;95324.13;;;15.78;100.00
36828;BME280;22766;48.042;11.192;2022-10-16T08:10:44;95322.03;;;16.11;100.00
36828;BME280;22766;48.042;11.192;2022-10-16T08:13:11;95318.63;;;16.40;100.00
36828;BME280;22766;48.042;11.192;2022-10-16T08:15:42;95331.13;;;16.88;100.00
36828;BME280;22766;48.042;11.192;2022-10-16T08:18:11;95327.41;;;17.33;100.00
36828;BME280;22766;48.042;11.192;2022-10-16T08:20:38;95325.78;;;17.67;100.00
36828;BME280;22766;48.042;11.192;2022-10-16T08:23:05;95337.38;;;18.07;100.00
36828;BME280;22766;48.042;11.192;2022-10-16T08:25:36;95332.50;;;18.25;100.00
36828;BME280;22766;48.042;11.192;2022-10-16T08:28:07;95340.16;;;18.33;100.00
36828;BME280;22766;48.042;11.192;2022-10-16T08:30:34;95332.69;;;18.51;100.00
36828;BME280;22766;48.042;11.192;2022-10-16T08:33:01;95340.31;;;18.87;100.00
36828;BME280;22766;48.042;11.192;2022-10-16T08:35:28;95342.59;;;19.10;100.00
36828;BME280;22766;48.042;11.192;2022-10-16T08:37:54;95348.41;;;19.59;100.00
36828;BME280;22766;48.042;11.192;2022-10-16T08:40:25;95349.06;;;19.81;100.00
36828;BME280;22766;48.042;11.192;2022-10-16T08:43:18;95348.06;;;19.88;100.00
36828;BME280;22766;48.042;11.192;2022-10-16T08:48:46;95349.69;;;19.16;100.00
36828;BME280;22766;48.042;11.192;2022-10-16T08:51:35;95357.88;;;19.53;100.00
36828;BME280;22766;48.042;11.192;2022-10-16T08:57:09;95363.03;;;20.33;100.00
36828;BME280;22766;48.042;11.192;2022-10-16T08:59:36;95367.84;;;20.63;100.00
36828;BME280;22766;48.042;11.192;2022-10-16T09:02:17;95365.19;;;20.69;100.00
36828;BME280;22766;48.042;11.192;2022-10-16T09:05:02;95358.25;;;21.07;100.00
36828;BME280;22766;48.042;11.192;2022-10-16T09:18:48;95354.66;;;21.39;93.93
36828;BME280;22766;48.042;11.192;2022-10-16T09:23:57;95354.78;;;22.20;87.11
36828;BME280;22766;48.042;11.192;2022-10-16T09:26:25;95357.22;;;22.40;78.17
36828;BME280;22766;48.042;11.192;2022-10-16T09:28:52;95360.94;;;22.32;79.87
36828;BME280;22766;48.042;11.192;2022-10-16T09:31:20;95364.00;;;22.29;75.97
36828;BME280;22766;48.042;11.192;2022-10-16T09:33:57;95368.19;;;22.61;72.11
36828;BME280;22766;48.042;11.192;2022-10-16T09:36:25;95367.84;;;22.51;71.29
36828;BME280;22766;48.042;11.192;2022-10-16T09:39:05;95364.94;;;22.84;73.95
36828;BME280;22766;48.042;11.192;2022-10-16T09:41:35;95366.41;;;23.16;66.73
36828;BME280;22766;48.042;11.192;2022-10-16T09:44:03;95372.84;;;23.02;64.51
36828;BME280;22766;48.042;11.192;2022-10-16T09:46:35;95382.00;;;23.36;63.58
36828;BME280;22766;48.042;11.192;2022-10-16T09:49:05;95363.84;;;23.75;57.07
36828;BME280;22766;48.042;11.192;2022-10-16T09:51:44;95366.84;;;24.08;50.28
36828;BME280;22766;48.042;11.192;2022-10-16T09:54:17;95372.69;;;24.22;48.96
36828;BME280;22766;48.042;11.192;2022-10-16T09:56:44;95376.09;;;24.52;52.34
36828;BME280;22766;48.042;11.192;2022-10-16T09:59:19;95380.94;;;24.78;51.79
36828;BME280;22766;48.042;11.192;2022-10-16T10:04:13;95382.63;;;23.97;49.64
36828;BME280;22766;48.042;11.192;2022-10-16T10:06:43;95377.22;;;24.56;51.75
36828;BME280;22766;48.042;11.192;2022-10-16T10:09:28;95374.94;;;25.06;52.88
36828;BME280;22766;48.042;11.192;2022-10-16T10:12:04;95369.94;;;25.21;48.98
36828;BME280;22766;48.042;11.192;2022-10-16T10:14:40;95373.16;;;25.46;47.72
36828;BME280;22766;48.042;11.192;2022-10-16T10:17:19;95374.59;;;26.10;46.50
36828;BME280;22766;48.042;11.192;2022-10-16T10:19:58;95385.56;;;26.30;41.56
36828;BME280;22766;48.042;11.192;2022-10-16T10:35:45;95395.72;;;25.02;39.62
36828;BME280;22766;48.042;11.192;2022-10-16T10:40:58;95383.28;;;23.92;45.43
36828;BME280;22766;48.042;11.192;2022-10-16T10:46:34;95374.19;;;24.30;47.10
36828;BME280;22766;48.042;11.192;2022-10-16T10:54:25;95378.44;;;25.35;41.34
36828;BME280;22766;48.042;11.192;2022-10-16T10:57:02;95374.78;;;25.24;43.63
36828;BME280;22766;48.042;11.192;2022-10-16T11:05:20;95377.16;;;27.26;39.62
36828;BME280;22766;48.042;11.192;2022-10-16T11:08:09;95373.09;;;27.19;39.65
36828;BME280;22766;48.042;11.192;2022-10-16T11:10:45;95375.28;;;27.43;39.31
36828;BME280;22766;48.042;11.192;2022-10-16T11:15:53;95369.31;;;28.01;37.43
36828;BME280;22766;48.042;11.192;2022-10-16T11:18:30;95378.41;;;28.69;37.00
36828;BME280;22766;48.042;11.192;2022-10-16T11:21:09;95375.00;;;28.73;34.70
36828;BME280;22766;48.042;11.192;2022-10-16T11:26:12;95365.28;;;28.89;34.65
36828;BME280;22766;48.042;11.192;2022-10-16T11:28:45;95367.59;;;29.22;34.17
36828;BME280;22766;48.042;11.192;2022-10-16T11:34:05;95363.66;;;28.88;33.30
36828;BME280;22766;48.042;11.192;2022-10-16T11:36:44;95366.72;;;29.06;34.30
36828;BME280;22766;48.042;11.192;2022-10-16T11:39:22;95361.53;;;29.31;33.68
36828;BME280;22766;48.042;11.192;2022-10-16T11:41:53;95363.78;;;29.65;31.91
36828;BME280;22766;48.042;11.192;2022-10-16T11:55:31;95362.59;;;30.78;29.30
36828;BME280;22766;48.042;11.192;2022-10-16T12:06:25;95362.25;;;32.71;25.75
36828;BME280;22766;48.042;11.192;2022-10-16T12:08:55;95363.88;;;31.89;27.52
36828;BME280;22766;48.042;11.192;2022-10-16T12:11:35;95351.94;;;32.21;26.92
36828;BME280;22766;48.042;11.192;2022-10-16T12:19:19;95352.81;;;33.31;28.11
36828;BME280;22766;48.042;11.192;2022-10-16T12:21:46;95355.44;;;33.12;28.38
36828;BME280;22766;48.042;11.192;2022-10-16T12:26:49;95352.59;;;33.27;25.90
36828;BME280;22766;48.042;11.192;2022-10-16T12:31:56;95348.31;;;33.92;25.38
36828;BME280;22766;48.042;11.192;2022-10-16T12:34:39;95350.63;;;34.36;25.68
36828;BME280;22766;48.042;11.192;2022-10-16T12:37:18;95350.22;;;34.29;23.47
36828;BME280;22766;48.042;11.192;2022-10-16T12:39:48;95346.69;;;33.54;23.86
36828;BME280;22766;48.042;11.192;2022-10-16T12:44:54;95349.66;;;33.05;24.90
36828;BME280;22766;48.042;11.192;2022-10-16T12:50:03;95344.09;;;33.67;24.91
36828;BME280;22766;48.042;11.192;2022-10-16T12:52:38;95335.66;;;33.98;24.62
36828;BME280;22766;48.042;11.192;2022-10-16T12:55:15;95338.34;;;33.98;23.60
36828;BME280;22766;48.042;11.192;2022-10-16T13:00:45;95333.28;;;34.65;22.48
36828;BME280;22766;48.042;11.192;2022-10-16T13:06:19;95340.03;;;34.63;23.93
36828;BME280;22766;48.042;11.192;2022-10-16T13:09:02;95344.97;;;34.56;24.97
36828;BME280;22766;48.042;11.192;2022-10-16T13:17:13;95349.81;;;34.54;24.15
36828;BME280;22766;48.042;11.192;2022-10-16T13:28:10;95338.47;;;33.45;25.80
36828;BME280;22766;48.042;11.192;2022-10-16T13:30:43;95342.88;;;34.53;24.65
36828;BME280;22766;48.042;11.192;2022-10-16T13:35:53;95342.94;;;35.12;24.29
36828;BME280;22766;48.042;11.192;2022-10-16T13:38:26;95341.03;;;35.13;24.50
36828;BME280;22766;48.042;11.192;2022-10-16T13:40:56;95345.03;;;35.29;25.28
36828;BME280;22766;48.042;11.192;2022-10-16T13:43:45;95351.66;;;35.04;24.56
36828;BME280;22766;48.042;11.192;2022-10-16T13:46:16;95354.94;;;35.28;23.66
36828;BME280;22766;48.042;11.192;2022-10-16T13:48:43;95352.22;;;34.88;26.11
36828;BME280;22766;48.042;11.192;2022-10-16T13:51:18;95353.94;;;34.97;24.86
36828;BME280;22766;48.042;11.192;2022-10-16T13:53:45;95355.66;;;35.07;24.50
36828;BME280;22766;48.042;11.192;2022-10-16T13:56:18;95360.81;;;35.30;24.77
36828;BME280;22766;48.042;11.192;2022-10-16T13:58:46;95358.72;;;35.14;24.76
36828;BME280;22766;48.042;11.192;2022-10-16T14:01:24;95362.34;;;34.91;25.07
36828;BME280;22766;48.042;11.192;2022-10-16T14:04:05;95357.28;;;34.89;25.34
36828;BME280;22766;48.042;11.192;2022-10-16T14:06:35;95364.72;;;34.92;25.68
36828;BME280;22766;48.042;11.192;2022-10-16T14:09:22;95369.09;;;34.88;25.59
36828;BME280;22766;48.042;11.192;2022-10-16T14:11:51;95361.56;;;34.39;26.50
36828;BME280;22766;48.042;11.192;2022-10-16T14:14:19;95360.25;;;33.62;27.45
36828;BME280;22766;48.042;11.192;2022-10-16T14:16:46;95369.19;;;32.72;25.53
36828;BME280;22766;48.042;11.192;2022-10-16T14:21:46;95370.81;;;33.91;26.67
36828;BME280;22766;48.042;11.192;2022-10-16T14:24:25;95360.78;;;32.83;28.32
36828;BME280;22766;48.042;11.192;2022-10-16T14:26:52;95359.97;;;33.17;26.39
36828;BME280;22766;48.042;11.192;2022-10-16T14:29:24;95358.56;;;32.62;29.47
36828;BME280;22766;48.042;11.192;2022-10-16T14:32:21;95363.72;;;31.66;29.60
36828;BME280;22766;48.042;11.192;2022-10-16T14:34:53;95363.41;;;31.03;31.41
36828;BME280;22766;48.042;11.192;2022-10-16T14:37:27;95365.22;;;30.07;32.50
36828;BME280;22766;48.042;11.192;2022-10-16T14:39:56;95365.16;;;29.72;32.47
36828;BME280;22766;48.042;11.192;2022-10-16T14:42:24;95362.59;;;29.30;34.37
36828;BME280;22766;48.042;11.192;2022-10-16T14:44:53;95366.47;;;28.71;37.44
36828;BME280;22766;48.042;11.192;2022-10-16T14:47:25;95360.75;;;28.21;40.27
36828;BME280;22766;48.042;11.192;2022-10-16T14:49:53;95359.25;;;27.55;43.24
36828;BME280;22766;48.042;11.192;2022-10-16T14:52:25;95363.31;;;27.19;44.67
36828;BME280;22766;48.042;11.192;2022-10-16T14:54:52;95358.56;;;26.83;44.44
36828;BME280;22766;48.042;11.192;2022-10-16T14:57:24;95364.38;;;26.14;45.84
36828;BME280;22766;48.042;11.192;2022-10-16T14:59:53;95366.72;;;25.42;47.17
36828;BME280;22766;48.042;11.192;2022-10-16T15:04:47;95371.25;;;24.61;57.82
36828;BME280;22766;48.042;11.192;2022-10-16T15:07:14;95373.31;;;24.47;59.31
36828;BME280;22766;48.042;11.192;2022-10-16T15:09:40;95376.50;;;23.55;66.20
36828;BME280;22766;48.042;11.192;2022-10-16T15:12:14;95372.41;;;23.05;68.17
36828;BME280;22766;48.042;11.192;2022-10-16T15:14:41;95374.06;;;22.63;70.62
36828;BME280;22766;48.042;11.192;2022-10-16T15:17:11;95380.16;;;22.33;68.69
36828;BME280;22766;48.042;11.192;2022-10-16T15:19:38;95372.66;;;22.36;68.61
36828;BME280;22766;48.042;11.192;2022-10-16T15:22:04;95371.84;;;22.36;71.01